createdAt,value
2023-09-23T03:17:52.131Z,100330.81
2023-09-23T03:23:21.729Z,100337.25
2023-09-23T03:28:25.079Z,100344.88
2023-09-23T03:33:30.969Z,100344.88
2023-09-23T03:38:34.616Z,100341.34
2023-09-23T03:43:39.071Z,100338.63
2023-09-23T03:48:43.347Z,100349.66
2023-09-23T03:53:46.134Z,100355.59
2023-09-23T03:58:49.371Z,100341.72
2023-09-23T04:03:57.832Z,100348.44
2023-09-23T04:09:07.152Z,100350.06
2023-09-23T04:14:12.781Z,100362.78
2023-09-23T04:19:15.423Z,100370.41
2023-09-23T04:24:21.663Z,100370.38
2023-09-23T04:29:27.154Z,100378.00
2023-09-23T04:34:36.923Z,100387.53
2023-09-23T04:39:39.885Z,100384.97
2023-09-23T04:44:42.755Z,100385.78
2023-09-23T04:49:49.499Z,100404.59
2023-09-23T04:54:54.507Z,100408.69
2023-09-23T04:59:58.816Z,100428.47
2023-09-23T05:05:05.205Z,100423.34
2023-09-23T05:10:08.568Z,100425.94
2023-09-23T05:15:11.433Z,100435.44
2023-09-23T05:20:26.944Z,100429.78
2023-09-23T05:25:29.928Z,100444.31
2023-09-23T05:30:33.134Z,100455.56
2023-09-23T05:35:39.445Z,100467.47
2023-09-23T05:40:42.291Z,100484.59
2023-09-23T05:45:51.241Z,100492.09
2023-09-23T05:51:04.481Z,100509.44
2023-09-23T05:56:09.275Z,100510.50
2023-09-23T06:01:17.389Z,100519.41
2023-09-23T06:06:20.080Z,100519.72
2023-09-23T06:11:25.855Z,100522.72
2023-09-23T06:16:29.830Z,100530.66
2023-09-23T06:21:35.150Z,100528.63
2023-09-23T06:26:41.706Z,100547.97
2023-09-23T06:31:50.241Z,100540.75
2023-09-23T06:36:52.996Z,100558.19
2023-09-23T06:41:59.393Z,100570.66
2023-09-23T06:47:09.828Z,100565.81
2023-09-23T06:52:15.414Z,100575.69
2023-09-23T06:57:23.350Z,100577.63
2023-09-23T07:02:27.717Z,100588.22
2023-09-23T07:07:30.525Z,100599.59
2023-09-23T07:12:36.085Z,100607.94
2023-09-23T07:17:41.867Z,100617.41
2023-09-23T07:22:44.760Z,100623.06
2023-09-23T07:27:47.467Z,100622.25
2023-09-23T07:32:53.141Z,100652.88
2023-09-23T07:38:00.763Z,100648.75
2023-09-23T07:43:04.138Z,100650.19
2023-09-23T07:48:10.862Z,100658.50
2023-09-23T07:53:16.464Z,100671.78
2023-09-23T07:58:19.488Z,100670.91
2023-09-23T08:03:28.203Z,100677.13
2023-09-23T08:08:36.167Z,100685.56
2023-09-23T08:13:41.866Z,100702.38
2023-09-23T08:18:47.771Z,100707.91
2023-09-23T08:23:50.386Z,100712.50
2023-09-23T08:28:53.341Z,100712.09
2023-09-23T08:33:56.121Z,100726.00
2023-09-23T08:39:01.177Z,100725.53
2023-09-23T08:44:08.489Z,100737.53
2023-09-23T08:49:14.414Z,100748.34
2023-09-23T08:54:18.446Z,100755.97
2023-09-23T08:59:21.370Z,100777.97
2023-09-23T09:04:25.486Z,100767.28
2023-09-23T09:09:28.221Z,100784.69
2023-09-23T09:14:33.634Z,100810.25
2023-09-23T09:19:40.798Z,100797.81
2023-09-23T09:24:44.386Z,100796.75
2023-09-23T09:29:50.219Z,100814.03
2023-09-23T09:34:55.809Z,100813.78
2023-09-23T09:40:04.439Z,100815.75
2023-09-23T09:45:11.613Z,100813.16
2023-09-23T09:50:15.727Z,100818.53
2023-09-23T09:55:23.002Z,100805.72
2023-09-23T10:00:28.712Z,100811.84
2023-09-23T10:05:51.047Z,100817.66
2023-09-23T10:11:04.143Z,100831.94
2023-09-23T10:16:13.589Z,100828.88
2023-09-23T10:21:24.553Z,100832.09
2023-09-23T10:26:32.129Z,100831.78
2023-09-23T10:31:35.712Z,100825.16
2023-09-23T10:36:38.484Z,100822.56
2023-09-23T10:41:41.642Z,100834.84
2023-09-23T10:46:44.382Z,100836.34
2023-09-23T10:51:47.147Z,100823.19
2023-09-23T10:56:51.210Z,100830.38
2023-09-23T11:01:57.230Z,100839.41
2023-09-23T11:07:00.352Z,100847.22
2023-09-23T11:12:16.395Z,100844.06
2023-09-23T11:17:30.435Z,100835.97
2023-09-23T11:22:33.370Z,100840.44
2023-09-23T11:27:36.122Z,100844.88
2023-09-23T11:32:40.071Z,100845.13
2023-09-23T11:37:42.822Z,100856.94
2023-09-23T11:42:45.528Z,100854.19
2023-09-23T11:47:51.072Z,100856.63
2023-09-23T11:52:59.504Z,100860.34
2023-09-23T11:58:05.251Z,100861.28
2023-09-23T12:03:10.872Z,100858.13
2023-09-23T12:08:13.587Z,100867.97
2023-09-23T12:13:16.282Z,100857.47
2023-09-23T12:18:19.889Z,100854.72
2023-09-23T12:23:25.255Z,100860.63
2023-09-23T12:28:33.469Z,100862.19
2023-09-23T12:33:36.336Z,100884.31
2023-09-23T12:38:40.986Z,100897.94
2023-09-23T12:43:46.346Z,100904.91
2023-09-23T12:48:54.589Z,100910.72
2023-09-23T12:53:57.743Z,100915.09
2023-09-23T12:59:01.041Z,100913.84
2023-09-23T13:04:06.917Z,100922.88
2023-09-23T13:09:10.793Z,100937.84
2023-09-23T13:14:14.101Z,100953.59
2023-09-23T13:19:17.009Z,100955.38
2023-09-23T13:24:19.721Z,100961.34
2023-09-23T13:29:22.385Z,100945.34
2023-09-23T13:34:26.089Z,100959.75
2023-09-23T13:39:36.386Z,100976.75
2023-09-23T13:44:41.840Z,100991.56
2023-09-23T13:49:44.981Z,100989.84
2023-09-23T13:54:47.661Z,100997.66
2023-09-23T13:59:50.350Z,101010.03
2023-09-23T14:04:55.934Z,101011.50
2023-09-23T14:10:03.768Z,101014.38
2023-09-23T14:15:13.797Z,101024.66
2023-09-23T14:20:16.721Z,101024.16
2023-09-23T14:25:20.096Z,101017.00
2023-09-23T14:30:22.794Z,101033.53
2023-09-23T14:35:29.150Z,101041.81
2023-09-23T14:40:32.550Z,101044.69
2023-09-23T14:45:35.361Z,101039.22
2023-09-23T14:50:44.985Z,101052.59
2023-09-23T14:55:47.634Z,101057.69
2023-09-23T15:00:56.614Z,101055.16
2023-09-23T15:05:59.390Z,101061.22
2023-09-23T15:11:02.117Z,101070.38
2023-09-23T15:16:07.076Z,101077.84
2023-09-23T15:21:09.955Z,101083.66
2023-09-23T15:26:12.788Z,101092.78
2023-09-23T15:31:15.523Z,101086.22
2023-09-23T15:36:20.968Z,101109.31
2023-09-23T15:41:24.449Z,101106.53
2023-09-23T15:46:27.078Z,101106.31
2023-09-23T15:51:29.800Z,101110.09
2023-09-23T15:56:35.614Z,101116.16
2023-09-23T16:01:39.450Z,101134.75
2023-09-23T16:06:42.131Z,101151.09
2023-09-23T16:11:44.980Z,101154.66
2023-09-23T16:16:48.760Z,101151.38
2023-09-23T16:21:52.970Z,101158.25
2023-09-23T16:26:55.906Z,101175.56
2023-09-23T16:31:58.734Z,101178.56
2023-09-23T16:37:01.331Z,101189.97
2023-09-23T16:42:04.029Z,101201.94
2023-09-23T16:47:06.899Z,101213.00
2023-09-23T16:52:09.546Z,101213.00
2023-09-23T16:57:12.242Z,101223.25
2023-09-23T17:02:23.911Z,101230.78
2023-09-23T17:07:30.451Z,101231.41
2023-09-23T17:12:35.919Z,101243.91
2023-09-23T17:17:38.738Z,101243.50
2023-09-23T17:22:41.885Z,101244.94
2023-09-23T17:27:47.617Z,101245.56
2023-09-23T17:32:50.438Z,101243.63
2023-09-23T17:37:54.570Z,101254.16
2023-09-23T17:43:00.067Z,101255.84
2023-09-23T17:48:06.032Z,101251.94
2023-09-23T17:53:14.524Z,101258.41
2023-09-23T17:58:17.178Z,101276.97
2023-09-23T18:03:20.883Z,101280.97
2023-09-23T18:08:23.562Z,101276.78
2023-09-23T18:13:30.348Z,101280.41
2023-09-23T18:18:33.328Z,101270.75
2023-09-23T18:23:36.152Z,101277.97
2023-09-23T18:28:38.954Z,101277.59
2023-09-23T18:33:42.139Z,101288.06
2023-09-23T18:38:46.830Z,101296.00
2023-09-23T18:43:50.099Z,101305.16
2023-09-23T18:48:52.945Z,101307.63
2023-09-23T18:53:55.850Z,101322.44
2023-09-23T18:58:58.666Z,101345.81
2023-09-23T19:04:04.722Z,101348.91
2023-09-23T19:09:08.144Z,101355.84
2023-09-23T19:14:21.003Z,101369.38
2023-09-23T19:19:24.298Z,101380.59
2023-09-23T19:24:27.337Z,101394.09
2023-09-23T19:29:29.966Z,101407.59
2023-09-23T19:34:35.656Z,101407.47
2023-09-23T19:39:39.074Z,101412.91
2023-09-23T19:44:41.863Z,101416.94
2023-09-23T19:49:44.576Z,101417.81
2023-09-23T19:54:47.530Z,101423.06
2023-09-23T19:59:50.341Z,101429.25
2023-09-23T20:04:53.003Z,101434.81
2023-09-23T20:09:55.689Z,101437.44
2023-09-23T20:14:58.368Z,101432.66
2023-09-23T20:20:01.137Z,101446.34
2023-09-23T20:25:06.839Z,101446.97
2023-09-23T20:30:10.061Z,101459.47
2023-09-23T20:35:13.190Z,101464.03
2023-09-23T20:40:19.146Z,101463.66
2023-09-23T20:45:22.137Z,101465.06
2023-09-23T20:50:28.845Z,101475.56
2023-09-23T20:55:31.828Z,101476.69
2023-09-23T21:00:37.771Z,101488.97
2023-09-23T21:05:40.418Z,101497.91
2023-09-23T21:10:43.133Z,101495.91
2023-09-23T21:15:45.774Z,101505.81
2023-09-23T21:20:48.493Z,101505.31
2023-09-23T21:25:53.375Z,101509.56
2023-09-23T21:30:56.466Z,101509.84
2023-09-23T21:35:59.173Z,101515.16
2023-09-23T21:41:02.097Z,101510.38
2023-09-23T21:46:08.897Z,101525.31
2023-09-23T21:51:11.594Z,101530.69
2023-09-23T21:56:14.828Z,101535.28
2023-09-23T22:01:18.256Z,101544.72
2023-09-23T22:06:20.873Z,101547.47
2023-09-23T22:11:24.254Z,101554.75
2023-09-23T22:16:29.712Z,101553.75
2023-09-23T22:21:33.156Z,101547.72
2023-09-23T22:26:37.910Z,101550.38
2023-09-23T22:31:43.411Z,101549.31
2023-09-23T22:36:46.402Z,101560.03
2023-09-23T22:41:51.006Z,101558.91
2023-09-23T22:46:55.201Z,101561.06
2023-09-23T22:51:59.419Z,101559.25
2023-09-23T22:57:02.148Z,101565.66
2023-09-23T23:02:04.883Z,101566.44
2023-09-23T23:07:07.647Z,101574.16
2023-09-23T23:12:11.352Z,101577.38
2023-09-23T23:17:15.661Z,101580.72
2023-09-23T23:22:18.283Z,101588.00
2023-09-23T23:27:21.177Z,101599.81
2023-09-23T23:32:23.888Z,101605.97
2023-09-23T23:37:26.574Z,101603.84
2023-09-23T23:42:29.362Z,101602.16
2023-09-23T23:47:32.475Z,101615.66
2023-09-23T23:52:37.332Z,101628.94
2023-09-23T23:57:40.708Z,101625.59
